Página principal
METAR-TAF:

METAR-TAF

Aeroportos :

Aeródromo Municipal de Cascais (Tires)

Cascais, Portugal

latitude: 38-43-32N, longitude: 009-21-19W, altura: 99 m

Observação actual do tempo

O boletim foi feito há 21 minutos, às 12:00 UTC
Vento 10 kt de norte
Temperatura 16°C
Humidade 68%
Pressão 1030 hPa
Visibilidade 10 km ou mais
Nuvens dispersasa uma altura de 2800 ft

METAR: LPCS 061200Z 35010KT 9999 SCT028 16/10 Q1030

Hora: 12:21 (12:21 UTC)

Previsão

O boletim foi feito há 1 hora e 21 minutos, às 11:00 UTC
Previsão válida de 06 às 12 UTC a 06 às 21 UTC
Vento 8 kt de noroeste
Visibilidade 10 km ou mais
Nuvens dispersasa uma altura de 3000 ft
Temporariamente
de 06 às 12 UTC a 06 às 19 UTC
Nuvens fragmentadasa uma altura de 2500 ft
Tornando-se
de 06 às 19 UTC a 06 às 21 UTC
Vento 2 kt com direcção variável
Nuvens fragmentadasa uma altura de 800 ft

TAF: LPCS 061100Z 0612/0621 32008KT 9999 SCT030 TEMPO 0612/0619 BKN025 BECMG 0619/0621 VRB02KT BKN008

Observações e previsões do tempo de mais de 4000 aeroportos (mensagens METAR e TAF).

As estações disponíveis são os pontos amarelos e vermelhos sobre o mapa.

Mova o rato sobre o mapa para ver o nome da estação.

Depois clique no ponto para visualizar as observações e previsões meteorológicas.

Para alterar o mapa : clique nos botões verdes com uma cruz preta para aumentar o zoom; no botão verde com uma pitada de zoom; ou nas setas verdes para mapas adjacentes.


METAR-TAF: